Terminal Aerodrome Forecast
Issued by NWS Twin Cities, MN

Home | Current Version | Previous Version | Graphics & Text | Print | Product List | Glossary On
Versions: 1 2 3 4 5 6 7 8 9 10 11 12 13 14 15 16
000
FTUS43 KMPX 140300 AAA
TAFEAU
TAF AMD
KEAU 140321Z 1403/1424 01012KT P6SM SCT015 OVC030
      TEMPO 1403/1406 3SM -SN BKN015
     FM140600 35018G24KT P6SM BKN030 OVC080
     FM140800 34017G23KT P6SM OVC030
     FM141600 34016G24KT P6SM BKN040=

USA.gov is the U.S. government's official web portal to all federal, state and local government web resources and services.